sensor_id;sensor_type;location;lat;lon;timestamp;P1;durP1;ratioP1;P2;durP2;ratioP2
15130;SDS011;7666;50.920;4.628;2022-11-23T00:00:07;11.13;;;2.23;;
15130;SDS011;7666;50.920;4.628;2022-11-23T00:02:54;11.27;;;2.03;;
15130;SDS011;7666;50.920;4.628;2022-11-23T00:05:41;9.10;;;2.13;;
15130;SDS011;7666;50.920;4.628;2022-11-23T00:08:28;8.27;;;2.10;;
15130;SDS011;7666;50.920;4.628;2022-11-23T00:11:14;8.43;;;2.03;;
15130;SDS011;7666;50.920;4.628;2022-11-23T00:14:01;11.93;;;2.57;;
15130;SDS011;7666;50.920;4.628;2022-11-23T00:16:47;7.87;;;1.87;;
15130;SDS011;7666;50.920;4.628;2022-11-23T00:19:33;8.67;;;2.33;;
15130;SDS011;7666;50.920;4.628;2022-11-23T00:22:19;7.40;;;2.00;;
15130;SDS011;7666;50.920;4.628;2022-11-23T00:25:05;7.83;;;2.03;;
15130;SDS011;7666;50.920;4.628;2022-11-23T00:27:51;12.57;;;2.53;;
15130;SDS011;7666;50.920;4.628;2022-11-23T00:30:37;10.70;;;2.53;;
15130;SDS011;7666;50.920;4.628;2022-11-23T00:33:23;14.20;;;1.90;;
15130;SDS011;7666;50.920;4.628;2022-11-23T00:36:10;12.77;;;2.40;;
15130;SDS011;7666;50.920;4.628;2022-11-23T00:38:58;9.67;;;2.40;;
15130;SDS011;7666;50.920;4.628;2022-11-23T00:41:44;10.17;;;2.77;;
15130;SDS011;7666;50.920;4.628;2022-11-23T00:44:30;7.90;;;2.10;;
15130;SDS011;7666;50.920;4.628;2022-11-23T00:47:16;9.67;;;2.40;;
15130;SDS011;7666;50.920;4.628;2022-11-23T00:50:02;11.27;;;2.13;;
15130;SDS011;7666;50.920;4.628;2022-11-23T00:52:48;11.23;;;2.30;;
15130;SDS011;7666;50.920;4.628;2022-11-23T00:55:34;7.93;;;1.97;;
15130;SDS011;7666;50.920;4.628;2022-11-23T00:58:20;11.70;;;2.33;;
15130;SDS011;7666;50.920;4.628;2022-11-23T01:01:07;13.87;;;2.40;;
15130;SDS011;7666;50.920;4.628;2022-11-23T01:03:59;12.80;;;2.43;;
15130;SDS011;7666;50.920;4.628;2022-11-23T01:06:46;9.67;;;2.23;;
15130;SDS011;7666;50.920;4.628;2022-11-23T01:09:32;12.13;;;1.93;;
15130;SDS011;7666;50.920;4.628;2022-11-23T01:12:18;7.13;;;2.37;;
15130;SDS011;7666;50.920;4.628;2022-11-23T01:15:04;8.30;;;1.90;;
15130;SDS011;7666;50.920;4.628;2022-11-23T01:17:50;9.90;;;2.10;;
15130;SDS011;7666;50.920;4.628;2022-11-23T01:20:36;11.80;;;2.13;;
15130;SDS011;7666;50.920;4.628;2022-11-23T01:23:22;9.40;;;2.00;;
15130;SDS011;7666;50.920;4.628;2022-11-23T01:26:09;11.47;;;2.60;;
15130;SDS011;7666;50.920;4.628;2022-11-23T01:28:55;10.50;;;2.30;;
15130;SDS011;7666;50.920;4.628;2022-11-23T01:31:41;9.47;;;2.33;;
15130;SDS011;7666;50.920;4.628;2022-11-23T01:34:27;12.43;;;2.30;;
15130;SDS011;7666;50.920;4.628;2022-11-23T01:37:13;11.10;;;2.93;;
15130;SDS011;7666;50.920;4.628;2022-11-23T01:39:59;14.23;;;2.70;;
15130;SDS011;7666;50.920;4.628;2022-11-23T01:42:52;12.47;;;3.00;;
15130;SDS011;7666;50.920;4.628;2022-11-23T01:45:39;10.63;;;3.00;;
15130;SDS011;7666;50.920;4.628;2022-11-23T01:48:29;10.87;;;2.73;;
15130;SDS011;7666;50.920;4.628;2022-11-23T01:51:19;13.70;;;2.50;;
15130;SDS011;7666;50.920;4.628;2022-11-23T01:54:11;10.73;;;3.10;;
15130;SDS011;7666;50.920;4.628;2022-11-23T01:57:04;10.50;;;2.90;;
15130;SDS011;7666;50.920;4.628;2022-11-23T01:59:53;10.17;;;2.80;;
15130;SDS011;7666;50.920;4.628;2022-11-23T02:02:41;11.03;;;2.47;;
15130;SDS011;7666;50.920;4.628;2022-11-23T02:05:36;11.73;;;2.20;;
15130;SDS011;7666;50.920;4.628;2022-11-23T02:08:28;8.47;;;2.07;;
15130;SDS011;7666;50.920;4.628;2022-11-23T02:11:15;9.87;;;2.43;;
15130;SDS011;7666;50.920;4.628;2022-11-23T02:14:01;14.27;;;2.60;;
15130;SDS011;7666;50.920;4.628;2022-11-23T02:16:47;13.70;;;2.80;;
15130;SDS011;7666;50.920;4.628;2022-11-23T02:22:29;16.10;;;3.07;;
15130;SDS011;7666;50.920;4.628;2022-11-23T02:28:33;13.67;;;2.87;;
15130;SDS011;7666;50.920;4.628;2022-11-23T02:31:26;12.60;;;2.43;;
15130;SDS011;7666;50.920;4.628;2022-11-23T02:34:12;12.13;;;2.67;;
15130;SDS011;7666;50.920;4.628;2022-11-23T02:36:58;11.33;;;2.50;;
15130;SDS011;7666;50.920;4.628;2022-11-23T02:39:45;12.07;;;2.67;;
15130;SDS011;7666;50.920;4.628;2022-11-23T02:42:34;10.93;;;2.40;;
15130;SDS011;7666;50.920;4.628;2022-11-23T02:48:38;12.33;;;2.93;;
15130;SDS011;7666;50.920;4.628;2022-11-23T02:51:24;13.43;;;2.93;;
15130;SDS011;7666;50.920;4.628;2022-11-23T02:54:10;14.60;;;2.80;;
15130;SDS011;7666;50.920;4.628;2022-11-23T02:56:56;17.43;;;3.00;;
15130;SDS011;7666;50.920;4.628;2022-11-23T02:59:41;12.23;;;2.47;;
15130;SDS011;7666;50.920;4.628;2022-11-23T03:02:27;15.33;;;3.00;;
15130;SDS011;7666;50.920;4.628;2022-11-23T03:05:13;14.77;;;3.07;;
15130;SDS011;7666;50.920;4.628;2022-11-23T03:07:59;12.73;;;2.80;;
15130;SDS011;7666;50.920;4.628;2022-11-23T03:10:45;13.40;;;3.00;;
15130;SDS011;7666;50.920;4.628;2022-11-23T03:13:31;14.50;;;3.00;;
15130;SDS011;7666;50.920;4.628;2022-11-23T03:16:17;13.50;;;3.17;;
15130;SDS011;7666;50.920;4.628;2022-11-23T03:19:03;14.10;;;3.10;;
15130;SDS011;7666;50.920;4.628;2022-11-23T03:21:50;10.50;;;2.60;;
15130;SDS011;7666;50.920;4.628;2022-11-23T03:24:36;11.80;;;2.77;;
15130;SDS011;7666;50.920;4.628;2022-11-23T03:27:22;12.37;;;3.27;;
15130;SDS011;7666;50.920;4.628;2022-11-23T03:30:08;9.83;;;2.70;;
15130;SDS011;7666;50.920;4.628;2022-11-23T03:32:54;11.23;;;2.60;;
15130;SDS011;7666;50.920;4.628;2022-11-23T03:35:40;13.20;;;2.57;;
15130;SDS011;7666;50.920;4.628;2022-11-23T03:38:26;11.93;;;2.87;;
15130;SDS011;7666;50.920;4.628;2022-11-23T03:41:12;12.17;;;3.00;;
15130;SDS011;7666;50.920;4.628;2022-11-23T03:43:58;10.63;;;2.67;;
15130;SDS011;7666;50.920;4.628;2022-11-23T03:46:44;13.67;;;3.43;;
15130;SDS011;7666;50.920;4.628;2022-11-23T03:49:30;13.93;;;3.00;;
15130;SDS011;7666;50.920;4.628;2022-11-23T03:52:16;10.80;;;2.40;;
15130;SDS011;7666;50.920;4.628;2022-11-23T03:55:02;13.37;;;3.10;;
15130;SDS011;7666;50.920;4.628;2022-11-23T03:57:48;15.50;;;3.03;;
15130;SDS011;7666;50.920;4.628;2022-11-23T04:00:34;15.50;;;3.00;;
15130;SDS011;7666;50.920;4.628;2022-11-23T04:03:20;15.83;;;3.20;;
15130;SDS011;7666;50.920;4.628;2022-11-23T04:06:06;14.83;;;3.20;;
15130;SDS011;7666;50.920;4.628;2022-11-23T04:08:52;14.67;;;3.30;;
15130;SDS011;7666;50.920;4.628;2022-11-23T04:11:38;12.90;;;2.90;;
15130;SDS011;7666;50.920;4.628;2022-11-23T04:14:24;15.47;;;3.13;;
15130;SDS011;7666;50.920;4.628;2022-11-23T04:17:10;17.17;;;3.13;;
15130;SDS011;7666;50.920;4.628;2022-11-23T04:19:56;15.67;;;3.07;;
15130;SDS011;7666;50.920;4.628;2022-11-23T04:22:42;12.03;;;3.00;;
15130;SDS011;7666;50.920;4.628;2022-11-23T04:25:28;15.47;;;3.63;;
15130;SDS011;7666;50.920;4.628;2022-11-23T04:28:13;12.93;;;2.97;;
15130;SDS011;7666;50.920;4.628;2022-11-23T04:30:59;15.57;;;3.27;;
15130;SDS011;7666;50.920;4.628;2022-11-23T04:33:45;12.87;;;2.67;;
15130;SDS011;7666;50.920;4.628;2022-11-23T04:36:31;16.37;;;2.77;;
15130;SDS011;7666;50.920;4.628;2022-11-23T04:39:17;17.13;;;3.73;;
15130;SDS011;7666;50.920;4.628;2022-11-23T04:42:03;14.17;;;2.60;;
15130;SDS011;7666;50.920;4.628;2022-11-23T04:44:49;12.60;;;2.90;;
15130;SDS011;7666;50.920;4.628;2022-11-23T04:47:35;11.67;;;2.87;;
15130;SDS011;7666;50.920;4.628;2022-11-23T04:50:21;17.93;;;3.33;;
15130;SDS011;7666;50.920;4.628;2022-11-23T04:53:07;12.57;;;2.80;;
15130;SDS011;7666;50.920;4.628;2022-11-23T04:55:53;12.37;;;2.43;;
15130;SDS011;7666;50.920;4.628;2022-11-23T04:58:39;10.10;;;2.80;;
15130;SDS011;7666;50.920;4.628;2022-11-23T05:01:25;14.77;;;3.10;;
15130;SDS011;7666;50.920;4.628;2022-11-23T05:04:11;9.90;;;2.60;;
15130;SDS011;7666;50.920;4.628;2022-11-23T05:06:57;14.30;;;3.03;;
15130;SDS011;7666;50.920;4.628;2022-11-23T05:09:43;13.27;;;2.60;;
15130;SDS011;7666;50.920;4.628;2022-11-23T05:12:29;14.07;;;2.90;;
15130;SDS011;7666;50.920;4.628;2022-11-23T05:15:15;12.23;;;2.67;;
15130;SDS011;7666;50.920;4.628;2022-11-23T05:18:02;14.03;;;2.80;;
15130;SDS011;7666;50.920;4.628;2022-11-23T05:20:50;15.23;;;3.60;;
15130;SDS011;7666;50.920;4.628;2022-11-23T05:23:36;15.30;;;3.13;;
15130;SDS011;7666;50.920;4.628;2022-11-23T05:26:22;16.10;;;3.30;;
15130;SDS011;7666;50.920;4.628;2022-11-23T05:29:08;10.87;;;2.70;;
15130;SDS011;7666;50.920;4.628;2022-11-23T05:31:54;14.00;;;2.80;;
15130;SDS011;7666;50.920;4.628;2022-11-23T05:34:40;15.87;;;2.83;;
15130;SDS011;7666;50.920;4.628;2022-11-23T05:37:26;10.23;;;2.57;;
15130;SDS011;7666;50.920;4.628;2022-11-23T05:40:12;11.57;;;2.50;;
15130;SDS011;7666;50.920;4.628;2022-11-23T05:42:58;12.17;;;2.83;;
15130;SDS011;7666;50.920;4.628;2022-11-23T05:45:44;14.70;;;2.63;;
15130;SDS011;7666;50.920;4.628;2022-11-23T05:48:30;8.07;;;2.07;;
15130;SDS011;7666;50.920;4.628;2022-11-23T05:51:16;11.23;;;2.57;;
15130;SDS011;7666;50.920;4.628;2022-11-23T05:54:02;12.97;;;2.83;;
15130;SDS011;7666;50.920;4.628;2022-11-23T05:56:48;16.37;;;2.80;;
15130;SDS011;7666;50.920;4.628;2022-11-23T05:59:34;12.40;;;2.63;;
15130;SDS011;7666;50.920;4.628;2022-11-23T06:02:20;10.83;;;2.80;;
15130;SDS011;7666;50.920;4.628;2022-11-23T06:05:06;12.23;;;2.50;;
15130;SDS011;7666;50.920;4.628;2022-11-23T06:07:53;13.57;;;2.80;;
15130;SDS011;7666;50.920;4.628;2022-11-23T06:10:39;12.90;;;2.67;;
15130;SDS011;7666;50.920;4.628;2022-11-23T06:13:25;15.43;;;2.73;;
15130;SDS011;7666;50.920;4.628;2022-11-23T06:16:11;12.03;;;2.40;;
15130;SDS011;7666;50.920;4.628;2022-11-23T06:18:57;14.03;;;3.00;;
15130;SDS011;7666;50.920;4.628;2022-11-23T06:21:43;15.57;;;2.83;;
15130;SDS011;7666;50.920;4.628;2022-11-23T06:24:29;16.47;;;3.13;;
15130;SDS011;7666;50.920;4.628;2022-11-23T06:27:15;12.00;;;2.67;;
15130;SDS011;7666;50.920;4.628;2022-11-23T06:30:01;14.33;;;2.70;;
15130;SDS011;7666;50.920;4.628;2022-11-23T06:32:48;10.03;;;2.50;;
15130;SDS011;7666;50.920;4.628;2022-11-23T06:35:34;15.37;;;3.47;;
15130;SDS011;7666;50.920;4.628;2022-11-23T06:38:20;14.27;;;2.90;;
15130;SDS011;7666;50.920;4.628;2022-11-23T06:41:06;12.13;;;2.50;;
15130;SDS011;7666;50.920;4.628;2022-11-23T06:43:52;14.57;;;2.80;;
15130;SDS011;7666;50.920;4.628;2022-11-23T06:46:38;13.43;;;2.90;;
15130;SDS011;7666;50.920;4.628;2022-11-23T06:49:24;13.53;;;2.70;;
15130;SDS011;7666;50.920;4.628;2022-11-23T06:52:10;11.43;;;2.63;;
15130;SDS011;7666;50.920;4.628;2022-11-23T06:54:58;12.77;;;2.90;;
15130;SDS011;7666;50.920;4.628;2022-11-23T06:57:44;11.80;;;2.40;;
15130;SDS011;7666;50.920;4.628;2022-11-23T07:00:30;19.37;;;3.27;;
15130;SDS011;7666;50.920;4.628;2022-11-23T07:03:20;9.33;;;2.50;;
15130;SDS011;7666;50.920;4.628;2022-11-23T07:06:08;15.20;;;3.27;;
15130;SDS011;7666;50.920;4.628;2022-11-23T07:08:54;12.37;;;2.70;;
15130;SDS011;7666;50.920;4.628;2022-11-23T07:11:40;16.37;;;3.07;;
15130;SDS011;7666;50.920;4.628;2022-11-23T07:14:26;15.67;;;3.33;;
15130;SDS011;7666;50.920;4.628;2022-11-23T07:17:12;11.73;;;2.73;;
15130;SDS011;7666;50.920;4.628;2022-11-23T07:19:58;12.77;;;2.90;;
15130;SDS011;7666;50.920;4.628;2022-11-23T07:22:44;10.10;;;2.33;;
15130;SDS011;7666;50.920;4.628;2022-11-23T07:25:31;15.70;;;3.07;;
15130;SDS011;7666;50.920;4.628;2022-11-23T07:28:19;12.57;;;2.63;;
15130;SDS011;7666;50.920;4.628;2022-11-23T07:31:05;16.13;;;3.03;;
15130;SDS011;7666;50.920;4.628;2022-11-23T07:33:51;12.80;;;3.30;;
15130;SDS011;7666;50.920;4.628;2022-11-23T07:36:37;15.47;;;3.10;;
15130;SDS011;7666;50.920;4.628;2022-11-23T07:39:23;15.30;;;3.13;;
15130;SDS011;7666;50.920;4.628;2022-11-23T07:42:09;14.30;;;3.30;;
15130;SDS011;7666;50.920;4.628;2022-11-23T07:44:55;13.33;;;3.50;;
15130;SDS011;7666;50.920;4.628;2022-11-23T07:47:41;11.90;;;3.30;;
15130;SDS011;7666;50.920;4.628;2022-11-23T07:50:27;15.93;;;3.33;;
15130;SDS011;7666;50.920;4.628;2022-11-23T07:53:14;10.63;;;3.10;;
15130;SDS011;7666;50.920;4.628;2022-11-23T07:56:00;13.70;;;2.90;;
15130;SDS011;7666;50.920;4.628;2022-11-23T07:58:46;8.63;;;2.60;;
15130;SDS011;7666;50.920;4.628;2022-11-23T08:01:32;10.17;;;3.10;;
15130;SDS011;7666;50.920;4.628;2022-11-23T08:04:17;11.40;;;2.80;;
15130;SDS011;7666;50.920;4.628;2022-11-23T08:07:03;13.40;;;2.83;;
15130;SDS011;7666;50.920;4.628;2022-11-23T08:09:50;13.87;;;3.17;;
15130;SDS011;7666;50.920;4.628;2022-11-23T08:12:36;13.80;;;2.80;;
15130;SDS011;7666;50.920;4.628;2022-11-23T08:15:22;13.13;;;3.03;;
15130;SDS011;7666;50.920;4.628;2022-11-23T08:18:08;10.93;;;2.77;;
15130;SDS011;7666;50.920;4.628;2022-11-23T08:20:57;15.63;;;3.13;;
15130;SDS011;7666;50.920;4.628;2022-11-23T08:23:44;11.57;;;2.70;;
15130;SDS011;7666;50.920;4.628;2022-11-23T08:26:30;11.20;;;3.27;;
15130;SDS011;7666;50.920;4.628;2022-11-23T08:29:16;14.03;;;5.23;;
15130;SDS011;7666;50.920;4.628;2022-11-23T08:32:02;11.43;;;3.07;;
15130;SDS011;7666;50.920;4.628;2022-11-23T08:34:48;12.70;;;2.90;;
15130;SDS011;7666;50.920;4.628;2022-11-23T08:37:34;12.57;;;3.00;;
15130;SDS011;7666;50.920;4.628;2022-11-23T08:40:20;13.33;;;3.20;;
15130;SDS011;7666;50.920;4.628;2022-11-23T08:43:06;10.83;;;2.50;;
15130;SDS011;7666;50.920;4.628;2022-11-23T08:45:53;12.73;;;3.20;;
15130;SDS011;7666;50.920;4.628;2022-11-23T08:48:40;12.70;;;3.20;;
15130;SDS011;7666;50.920;4.628;2022-11-23T08:51:26;10.20;;;2.50;;
15130;SDS011;7666;50.920;4.628;2022-11-23T08:54:12;9.80;;;2.90;;
15130;SDS011;7666;50.920;4.628;2022-11-23T08:56:58;12.53;;;2.47;;
15130;SDS011;7666;50.920;4.628;2022-11-23T08:59:43;10.87;;;2.97;;
15130;SDS011;7666;50.920;4.628;2022-11-23T09:02:29;8.60;;;2.50;;
15130;SDS011;7666;50.920;4.628;2022-11-23T09:05:15;9.43;;;2.93;;
15130;SDS011;7666;50.920;4.628;2022-11-23T09:08:01;9.67;;;2.53;;
15130;SDS011;7666;50.920;4.628;2022-11-23T09:10:47;12.80;;;2.80;;
15130;SDS011;7666;50.920;4.628;2022-11-23T09:13:34;7.57;;;2.50;;
15130;SDS011;7666;50.920;4.628;2022-11-23T09:16:21;12.70;;;2.63;;
15130;SDS011;7666;50.920;4.628;2022-11-23T09:19:09;8.07;;;2.70;;
15130;SDS011;7666;50.920;4.628;2022-11-23T09:21:57;12.93;;;3.07;;
15130;SDS011;7666;50.920;4.628;2022-11-23T09:24:43;10.67;;;2.90;;
15130;SDS011;7666;50.920;4.628;2022-11-23T09:27:30;10.37;;;2.67;;
15130;SDS011;7666;50.920;4.628;2022-11-23T09:30:17;11.03;;;2.53;;
15130;SDS011;7666;50.920;4.628;2022-11-23T09:33:03;10.23;;;2.27;;
15130;SDS011;7666;50.920;4.628;2022-11-23T09:35:58;11.93;;;2.73;;
15130;SDS011;7666;50.920;4.628;2022-11-23T09:38:45;9.40;;;2.70;;
15130;SDS011;7666;50.920;4.628;2022-11-23T09:41:50;8.60;;;2.50;;
15130;SDS011;7666;50.920;4.628;2022-11-23T09:44:50;7.57;;;2.30;;
15130;SDS011;7666;50.920;4.628;2022-11-23T09:47:56;7.10;;;1.93;;
15130;SDS011;7666;50.920;4.628;2022-11-23T09:50:46;6.93;;;1.93;;
15130;SDS011;7666;50.920;4.628;2022-11-23T09:54:01;9.37;;;2.10;;
15130;SDS011;7666;50.920;4.628;2022-11-23T09:56:58;8.17;;;1.90;;
15130;SDS011;7666;50.920;4.628;2022-11-23T10:00:06;6.23;;;1.70;;
15130;SDS011;7666;50.920;4.628;2022-11-23T10:02:56;7.40;;;1.53;;
15130;SDS011;7666;50.920;4.628;2022-11-23T10:06:00;3.87;;;1.53;;
15130;SDS011;7666;50.920;4.628;2022-11-23T10:21:33;7.27;;;1.53;;
15130;SDS011;7666;50.920;4.628;2022-11-23T10:24:30;9.87;;;1.80;;
15130;SDS011;7666;50.920;4.628;2022-11-23T10:27:20;5.60;;;1.73;;
15130;SDS011;7666;50.920;4.628;2022-11-23T10:30:11;5.77;;;1.40;;
15130;SDS011;7666;50.920;4.628;2022-11-23T10:32:59;6.53;;;1.83;;
15130;SDS011;7666;50.920;4.628;2022-11-23T10:36:04;7.23;;;1.70;;
15130;SDS011;7666;50.920;4.628;2022-11-23T10:38:55;7.03;;;1.40;;
15130;SDS011;7666;50.920;4.628;2022-11-23T10:41:43;9.87;;;2.30;;
15130;SDS011;7666;50.920;4.628;2022-11-23T10:44:34;10.20;;;1.90;;
15130;SDS011;7666;50.920;4.628;2022-11-23T10:47:32;6.37;;;1.83;;
15130;SDS011;7666;50.920;4.628;2022-11-23T10:50:42;8.37;;;2.10;;
15130;SDS011;7666;50.920;4.628;2022-11-23T10:53:29;6.43;;;1.77;;
15130;SDS011;7666;50.920;4.628;2022-11-23T10:56:15;4.97;;;1.63;;
15130;SDS011;7666;50.920;4.628;2022-11-23T10:59:01;6.80;;;1.80;;
15130;SDS011;7666;50.920;4.628;2022-11-23T11:01:58;5.47;;;1.40;;
15130;SDS011;7666;50.920;4.628;2022-11-23T11:04:46;8.10;;;2.07;;
15130;SDS011;7666;50.920;4.628;2022-11-23T11:07:33;6.57;;;1.80;;
15130;SDS011;7666;50.920;4.628;2022-11-23T11:13:28;4.83;;;1.67;;
15130;SDS011;7666;50.920;4.628;2022-11-23T11:16:34;8.97;;;1.60;;
15130;SDS011;7666;50.920;4.628;2022-11-23T11:22:31;4.30;;;1.77;;
15130;SDS011;7666;50.920;4.628;2022-11-23T11:25:35;7.07;;;1.50;;
15130;SDS011;7666;50.920;4.628;2022-11-23T11:28:26;5.70;;;1.80;;
15130;SDS011;7666;50.920;4.628;2022-11-23T11:31:24;6.43;;;1.50;;
15130;SDS011;7666;50.920;4.628;2022-11-23T11:34:17;9.27;;;1.90;;
15130;SDS011;7666;50.920;4.628;2022-11-23T11:43:39;5.97;;;1.63;;
15130;SDS011;7666;50.920;4.628;2022-11-23T11:46:35;4.77;;;1.63;;
15130;SDS011;7666;50.920;4.628;2022-11-23T11:49:29;8.10;;;1.47;;
15130;SDS011;7666;50.920;4.628;2022-11-23T11:52:20;7.20;;;1.77;;
15130;SDS011;7666;50.920;4.628;2022-11-23T11:55:17;6.60;;;1.80;;
15130;SDS011;7666;50.920;4.628;2022-11-23T11:58:09;5.60;;;1.47;;
15130;SDS011;7666;50.920;4.628;2022-11-23T12:01:08;4.97;;;1.40;;
15130;SDS011;7666;50.920;4.628;2022-11-23T12:04:07;9.87;;;1.90;;
15130;SDS011;7666;50.920;4.628;2022-11-23T12:07:15;5.80;;;1.70;;
15130;SDS011;7666;50.920;4.628;2022-11-23T12:10:14;6.67;;;1.50;;
15130;SDS011;7666;50.920;4.628;2022-11-23T12:13:03;4.77;;;1.67;;
15130;SDS011;7666;50.920;4.628;2022-11-23T12:15:52;7.63;;;1.60;;
15130;SDS011;7666;50.920;4.628;2022-11-23T12:25:25;4.20;;;1.47;;
15130;SDS011;7666;50.920;4.628;2022-11-23T12:31:41;1.40;;;0.93;;
15130;SDS011;7666;50.920;4.628;2022-11-23T12:46:44;5.03;;;1.30;;
15130;SDS011;7666;50.920;4.628;2022-11-23T12:49:55;3.53;;;1.20;;
15130;SDS011;7666;50.920;4.628;2022-11-23T12:59:02;2.93;;;1.13;;
15130;SDS011;7666;50.920;4.628;2022-11-23T13:01:56;3.90;;;1.07;;
15130;SDS011;7666;50.920;4.628;2022-11-23T13:07:55;5.47;;;1.20;;
15130;SDS011;7666;50.920;4.628;2022-11-23T13:14:02;3.67;;;1.23;;
15130;SDS011;7666;50.920;4.628;2022-11-23T13:17:13;4.30;;;1.17;;
15130;SDS011;7666;50.920;4.628;2022-11-23T13:20:28;2.77;;;0.83;;
15130;SDS011;7666;50.920;4.628;2022-11-23T13:23:35;3.10;;;1.10;;
15130;SDS011;7666;50.920;4.628;2022-11-23T13:26:23;2.93;;;1.20;;
15130;SDS011;7666;50.920;4.628;2022-11-23T13:29:44;3.37;;;1.30;;
15130;SDS011;7666;50.920;4.628;2022-11-23T13:41:00;3.90;;;1.13;;
15130;SDS011;7666;50.920;4.628;2022-11-23T13:43:46;3.27;;;1.30;;
15130;SDS011;7666;50.920;4.628;2022-11-23T13:46:32;4.13;;;1.47;;
15130;SDS011;7666;50.920;4.628;2022-11-23T14:01:08;6.23;;;1.43;;
15130;SDS011;7666;50.920;4.628;2022-11-23T14:03:54;2.83;;;1.37;;
15130;SDS011;7666;50.920;4.628;2022-11-23T14:06:47;2.80;;;0.90;;
15130;SDS011;7666;50.920;4.628;2022-11-23T14:15:33;4.03;;;1.23;;
15130;SDS011;7666;50.920;4.628;2022-11-23T14:24:23;4.47;;;1.20;;
15130;SDS011;7666;50.920;4.628;2022-11-23T14:30:41;3.17;;;1.10;;
15130;SDS011;7666;50.920;4.628;2022-11-23T14:36:39;1.97;;;0.93;;
15130;SDS011;7666;50.920;4.628;2022-11-23T14:42:49;4.90;;;1.17;;
15130;SDS011;7666;50.920;4.628;2022-11-23T14:45:37;2.07;;;1.13;;
15130;SDS011;7666;50.920;4.628;2022-11-23T14:48:30;5.20;;;1.40;;
15130;SDS011;7666;50.920;4.628;2022-11-23T14:51:18;2.80;;;1.10;;
15130;SDS011;7666;50.920;4.628;2022-11-23T14:54:08;3.20;;;1.10;;
15130;SDS011;7666;50.920;4.628;2022-11-23T14:56:56;1.67;;;1.40;;
15130;SDS011;7666;50.920;4.628;2022-11-23T14:59:49;4.53;;;1.60;;
15130;SDS011;7666;50.920;4.628;2022-11-23T15:02:39;2.13;;;1.20;;
15130;SDS011;7666;50.920;4.628;2022-11-23T15:05:30;2.40;;;1.10;;
15130;SDS011;7666;50.920;4.628;2022-11-23T15:08:24;2.70;;;1.30;;
15130;SDS011;7666;50.920;4.628;2022-11-23T15:11:16;3.20;;;1.43;;
15130;SDS011;7666;50.920;4.628;2022-11-23T15:14:20;2.63;;;1.20;;
15130;SDS011;7666;50.920;4.628;2022-11-23T15:17:17;1.97;;;1.10;;
15130;SDS011;7666;50.920;4.628;2022-11-23T15:20:09;2.90;;;1.07;;
15130;SDS011;7666;50.920;4.628;2022-11-23T15:22:56;2.43;;;1.30;;
15130;SDS011;7666;50.920;4.628;2022-11-23T15:25:50;2.50;;;1.40;;
15130;SDS011;7666;50.920;4.628;2022-11-23T15:28:49;2.93;;;1.20;;
15130;SDS011;7666;50.920;4.628;2022-11-23T15:31:35;2.00;;;1.03;;
15130;SDS011;7666;50.920;4.628;2022-11-23T15:34:21;1.60;;;1.27;;
15130;SDS011;7666;50.920;4.628;2022-11-23T15:37:08;1.67;;;1.37;;
15130;SDS011;7666;50.920;4.628;2022-11-23T15:39:55;2.07;;;1.30;;
15130;SDS011;7666;50.920;4.628;2022-11-23T15:42:42;2.37;;;1.37;;
15130;SDS011;7666;50.920;4.628;2022-11-23T15:48:25;2.27;;;1.70;;
15130;SDS011;7666;50.920;4.628;2022-11-23T15:51:19;2.90;;;1.47;;
15130;SDS011;7666;50.920;4.628;2022-11-23T15:54:20;3.03;;;1.47;;
15130;SDS011;7666;50.920;4.628;2022-11-23T15:57:17;3.70;;;1.53;;
15130;SDS011;7666;50.920;4.628;2022-11-23T16:00:06;4.63;;;1.80;;
15130;SDS011;7666;50.920;4.628;2022-11-23T16:03:18;2.63;;;1.50;;
15130;SDS011;7666;50.920;4.628;2022-11-23T16:09:01;3.30;;;1.90;;
15130;SDS011;7666;50.920;4.628;2022-11-23T16:11:47;5.13;;;1.73;;
15130;SDS011;7666;50.920;4.628;2022-11-23T16:14:34;4.10;;;2.03;;
15130;SDS011;7666;50.920;4.628;2022-11-23T16:17:21;4.50;;;2.13;;
15130;SDS011;7666;50.920;4.628;2022-11-23T16:20:13;5.37;;;2.07;;
15130;SDS011;7666;50.920;4.628;2022-11-23T16:23:00;5.20;;;2.30;;
15130;SDS011;7666;50.920;4.628;2022-11-23T16:26:19;3.13;;;1.80;;
15130;SDS011;7666;50.920;4.628;2022-11-23T16:28:59;5.10;;;2.10;;
15130;SDS011;7666;50.920;4.628;2022-11-23T16:32:20;2.70;;;1.73;;
15130;SDS011;7666;50.920;4.628;2022-11-23T16:35:16;3.10;;;2.17;;
15130;SDS011;7666;50.920;4.628;2022-11-23T16:38:04;3.20;;;2.00;;
15130;SDS011;7666;50.920;4.628;2022-11-23T16:40:50;4.27;;;2.30;;
15130;SDS011;7666;50.920;4.628;2022-11-23T16:43:36;6.53;;;2.20;;
15130;SDS011;7666;50.920;4.628;2022-11-23T16:46:22;4.57;;;2.30;;
15130;SDS011;7666;50.920;4.628;2022-11-23T16:49:12;4.43;;;2.30;;
15130;SDS011;7666;50.920;4.628;2022-11-23T16:52:01;4.97;;;2.40;;
15130;SDS011;7666;50.920;4.628;2022-11-23T16:54:48;4.27;;;2.40;;
15130;SDS011;7666;50.920;4.628;2022-11-23T16:57:34;7.50;;;3.23;;
15130;SDS011;7666;50.920;4.628;2022-11-23T17:00:21;8.60;;;3.60;;
15130;SDS011;7666;50.920;4.628;2022-11-23T17:03:17;5.90;;;3.00;;
15130;SDS011;7666;50.920;4.628;2022-11-23T17:06:04;7.20;;;2.73;;
15130;SDS011;7666;50.920;4.628;2022-11-23T17:08:50;6.27;;;2.63;;
15130;SDS011;7666;50.920;4.628;2022-11-23T17:11:38;4.87;;;2.60;;
15130;SDS011;7666;50.920;4.628;2022-11-23T17:14:27;7.40;;;3.17;;
15130;SDS011;7666;50.920;4.628;2022-11-23T17:17:19;7.80;;;2.80;;
15130;SDS011;7666;50.920;4.628;2022-11-23T17:20:08;7.37;;;2.80;;
15130;SDS011;7666;50.920;4.628;2022-11-23T17:22:57;6.63;;;3.53;;
15130;SDS011;7666;50.920;4.628;2022-11-23T17:25:45;7.53;;;3.10;;
15130;SDS011;7666;50.920;4.628;2022-11-23T17:28:31;10.60;;;3.57;;
15130;SDS011;7666;50.920;4.628;2022-11-23T17:31:19;7.77;;;3.53;;
15130;SDS011;7666;50.920;4.628;2022-11-23T17:34:07;9.07;;;3.50;;
15130;SDS011;7666;50.920;4.628;2022-11-23T17:36:53;8.27;;;3.50;;
15130;SDS011;7666;50.920;4.628;2022-11-23T17:39:38;8.37;;;3.73;;
15130;SDS011;7666;50.920;4.628;2022-11-23T17:42:24;9.80;;;3.67;;
15130;SDS011;7666;50.920;4.628;2022-11-23T17:45:10;7.67;;;3.57;;
15130;SDS011;7666;50.920;4.628;2022-11-23T17:47:57;8.57;;;3.80;;
15130;SDS011;7666;50.920;4.628;2022-11-23T17:50:43;8.73;;;3.87;;
15130;SDS011;7666;50.920;4.628;2022-11-23T17:53:31;8.97;;;3.93;;
15130;SDS011;7666;50.920;4.628;2022-11-23T17:56:19;9.93;;;3.87;;
15130;SDS011;7666;50.920;4.628;2022-11-23T17:59:06;11.20;;;4.00;;
15130;SDS011;7666;50.920;4.628;2022-11-23T18:01:53;9.80;;;4.00;;
15130;SDS011;7666;50.920;4.628;2022-11-23T18:04:39;9.70;;;4.87;;
15130;SDS011;7666;50.920;4.628;2022-11-23T18:07:25;10.13;;;4.30;;
15130;SDS011;7666;50.920;4.628;2022-11-23T18:10:11;9.20;;;4.37;;
15130;SDS011;7666;50.920;4.628;2022-11-23T18:13:00;15.07;;;4.83;;
15130;SDS011;7666;50.920;4.628;2022-11-23T18:15:46;8.87;;;4.50;;
15130;SDS011;7666;50.920;4.628;2022-11-23T18:18:33;12.73;;;4.13;;
15130;SDS011;7666;50.920;4.628;2022-11-23T18:21:19;13.83;;;5.30;;
15130;SDS011;7666;50.920;4.628;2022-11-23T18:24:05;15.53;;;4.80;;
15130;SDS011;7666;50.920;4.628;2022-11-23T18:26:53;14.73;;;5.87;;
15130;SDS011;7666;50.920;4.628;2022-11-23T18:29:39;17.13;;;5.60;;
15130;SDS011;7666;50.920;4.628;2022-11-23T18:32:25;18.60;;;6.70;;
15130;SDS011;7666;50.920;4.628;2022-11-23T18:35:11;20.30;;;6.07;;
15130;SDS011;7666;50.920;4.628;2022-11-23T18:37:56;17.90;;;5.60;;
15130;SDS011;7666;50.920;4.628;2022-11-23T18:40:42;19.47;;;6.80;;
15130;SDS011;7666;50.920;4.628;2022-11-23T18:43:29;15.67;;;5.43;;
15130;SDS011;7666;50.920;4.628;2022-11-23T18:46:15;16.37;;;5.80;;
15130;SDS011;7666;50.920;4.628;2022-11-23T18:49:03;21.37;;;7.53;;
15130;SDS011;7666;50.920;4.628;2022-11-23T18:51:49;17.03;;;5.50;;
15130;SDS011;7666;50.920;4.628;2022-11-23T18:54:35;17.73;;;5.73;;
15130;SDS011;7666;50.920;4.628;2022-11-23T18:57:21;14.03;;;5.00;;
15130;SDS011;7666;50.920;4.628;2022-11-23T19:00:08;15.63;;;5.00;;